createdAt,value
2018-05-07T00:00:34.658Z,12.29
2018-05-07T00:03:02.028Z,12.19
2018-05-07T00:05:29.627Z,12.27
2018-05-07T00:07:57.009Z,12.14
2018-05-07T00:10:24.408Z,12.27
2018-05-07T00:12:51.789Z,12.46
2018-05-07T00:15:19.167Z,12.65
2018-05-07T00:17:46.572Z,12.69
2018-05-07T00:20:13.966Z,12.85
2018-05-07T00:22:41.356Z,12.88
2018-05-07T00:25:08.748Z,12.59
2018-05-07T00:27:36.150Z,12.24
2018-05-07T00:30:03.548Z,11.90
2018-05-07T00:32:30.940Z,11.64
2018-05-07T00:34:58.963Z,11.69
2018-05-07T00:37:27.181Z,11.69
2018-05-07T00:39:54.573Z,11.50
2018-05-07T00:42:21.948Z,11.38
2018-05-07T00:44:49.345Z,11.42
2018-05-07T00:47:16.741Z,11.36
2018-05-07T00:49:44.185Z,11.44
2018-05-07T00:52:12.387Z,11.41
2018-05-07T00:54:51.552Z,11.23
2018-05-07T00:57:18.960Z,11.21
2018-05-07T00:59:46.343Z,11.12
2018-05-07T01:02:13.745Z,10.98
2018-05-07T01:04:41.135Z,10.83
2018-05-07T01:07:08.529Z,10.88
2018-05-07T01:09:35.916Z,11.00
2018-05-07T01:12:03.301Z,11.17
2018-05-07T01:14:30.672Z,11.27
2018-05-07T01:16:58.078Z,11.45
2018-05-07T01:19:25.451Z,11.69
2018-05-07T01:21:52.836Z,11.83
2018-05-07T01:24:20.228Z,11.91
2018-05-07T01:26:47.633Z,12.01
2018-05-07T01:29:15.013Z,11.92
2018-05-07T01:31:42.412Z,11.86
2018-05-07T01:34:09.805Z,11.94
2018-05-07T01:36:37.189Z,12.01
2018-05-07T01:39:04.871Z,12.07
2018-05-07T01:41:32.918Z,12.13
2018-05-07T01:44:00.298Z,12.09
2018-05-07T01:46:27.685Z,12.17
2018-05-07T01:48:55.065Z,12.22
2018-05-07T01:51:23.224Z,12.16
2018-05-07T01:53:50.619Z,12.19
2018-05-07T01:56:18.021Z,12.24
2018-05-07T01:58:45.412Z,12.24
2018-05-07T02:01:12.792Z,12.25
2018-05-07T02:03:40.192Z,12.23
2018-05-07T02:06:07.576Z,12.19
2018-05-07T02:08:34.964Z,12.11
2018-05-07T02:11:02.352Z,12.05
2018-05-07T02:13:29.743Z,12.00
2018-05-07T02:15:57.120Z,12.01
2018-05-07T02:18:24.524Z,12.02
2018-05-07T02:20:51.916Z,11.97
2018-05-07T02:23:19.304Z,11.90
2018-05-07T02:25:46.691Z,11.65
2018-05-07T02:28:14.082Z,11.39
2018-05-07T02:30:41.465Z,11.15
2018-05-07T02:33:08.863Z,11.04
2018-05-07T02:35:36.267Z,11.07
2018-05-07T02:38:03.634Z,11.16
2018-05-07T02:40:31.020Z,11.16
2018-05-07T02:42:58.426Z,11.17
2018-05-07T02:45:25.799Z,11.18
2018-05-07T02:47:53.215Z,11.27
2018-05-07T02:50:20.590Z,11.48
2018-05-07T02:52:47.986Z,11.60
2018-05-07T02:55:15.381Z,11.72
2018-05-07T02:57:42.765Z,11.76
2018-05-07T03:00:10.160Z,11.87
2018-05-07T03:02:37.551Z,11.91
2018-05-07T03:05:04.930Z,11.92
2018-05-07T03:07:32.332Z,11.90
2018-05-07T03:09:59.722Z,11.89
2018-05-07T03:12:27.124Z,11.80
2018-05-07T03:14:54.525Z,11.63
2018-05-07T03:17:21.909Z,10.85
2018-05-07T03:19:49.311Z,10.63
2018-05-07T03:22:16.691Z,10.40
2018-05-07T03:24:44.111Z,10.20
2018-05-07T03:27:11.484Z,10.11
2018-05-07T03:29:38.869Z,10.14
2018-05-07T03:32:06.250Z,10.40
2018-05-07T03:34:33.634Z,10.63
2018-05-07T03:37:01.026Z,10.85
2018-05-07T03:39:28.418Z,11.09
2018-05-07T03:41:55.802Z,11.21
2018-05-07T03:44:23.195Z,11.27
2018-05-07T03:46:50.589Z,11.33
2018-05-07T03:49:17.976Z,11.40
2018-05-07T03:51:45.363Z,11.38
2018-05-07T03:54:12.754Z,11.35
2018-05-07T03:56:40.131Z,11.30
2018-05-07T03:59:07.548Z,11.24
2018-05-07T04:01:34.924Z,11.28
2018-05-07T04:04:02.330Z,11.30
2018-05-07T04:06:29.724Z,11.31
2018-05-07T04:08:57.162Z,11.37
2018-05-07T04:11:24.555Z,11.42
2018-05-07T04:13:51.956Z,11.43
2018-05-07T04:16:31.158Z,11.50
2018-05-07T04:19:10.356Z,11.52
2018-05-07T04:21:37.744Z,11.26
2018-05-07T04:24:05.673Z,10.72
2018-05-07T04:26:33.056Z,10.55
2018-05-07T04:29:00.454Z,10.50
2018-05-07T04:31:27.835Z,10.50
2018-05-07T04:33:55.229Z,10.46
2018-05-07T04:36:22.633Z,10.57
2018-05-07T04:38:50.024Z,10.53
2018-05-07T04:41:17.416Z,10.58
2018-05-07T04:43:44.806Z,10.63
2018-05-07T04:46:12.192Z,10.71
2018-05-07T04:48:39.583Z,10.79
2018-05-07T04:51:06.976Z,10.92
2018-05-07T04:53:34.360Z,10.96
2018-05-07T04:56:01.765Z,11.03
2018-05-07T04:58:29.158Z,11.18
2018-05-07T05:00:56.551Z,11.33
2018-05-07T05:03:23.938Z,11.55
2018-05-07T05:05:51.327Z,11.69
2018-05-07T05:08:18.712Z,11.81
2018-05-07T05:10:46.106Z,12.02
2018-05-07T05:13:13.815Z,12.04
2018-05-07T05:15:41.212Z,12.12
2018-05-07T05:18:08.600Z,12.21
2018-05-07T05:20:36.006Z,12.22
2018-05-07T05:23:03.385Z,12.31
2018-05-07T05:25:30.780Z,12.38
2018-05-07T05:27:58.165Z,12.52
2018-05-07T05:30:25.554Z,12.61
2018-05-07T05:32:52.943Z,12.71
2018-05-07T05:35:20.345Z,12.93
2018-05-07T05:37:47.726Z,13.63
2018-05-07T05:40:15.127Z,15.64
2018-05-07T05:42:42.511Z,17.31
2018-05-07T05:45:09.902Z,18.25
2018-05-07T05:47:37.289Z,19.38
2018-05-07T05:50:04.818Z,18.61
2018-05-07T05:52:32.086Z,18.81
2018-05-07T05:54:59.477Z,19.41
2018-05-07T05:57:26.848Z,19.11
2018-05-07T05:59:54.248Z,19.09
2018-05-07T06:02:21.649Z,18.83
2018-05-07T06:04:49.021Z,18.81
2018-05-07T06:07:16.430Z,19.37
2018-05-07T06:09:43.795Z,19.61
2018-05-07T06:12:11.193Z,19.37
2018-05-07T06:14:38.644Z,19.84
2018-05-07T06:17:05.956Z,19.66
2018-05-07T06:19:33.350Z,18.76
2018-05-07T06:22:00.737Z,19.54
2018-05-07T06:24:28.126Z,18.98
2018-05-07T06:26:55.526Z,18.13
2018-05-07T06:29:22.901Z,16.39
2018-05-07T06:31:50.304Z,16.15
2018-05-07T06:34:17.707Z,15.82
2018-05-07T06:36:45.096Z,15.58
2018-05-07T06:39:12.481Z,15.55
2018-05-07T06:41:39.868Z,15.74
2018-05-07T06:44:07.248Z,15.88
2018-05-07T06:46:34.651Z,15.79
2018-05-07T06:49:02.041Z,15.85
2018-05-07T06:51:29.426Z,15.87
2018-05-07T06:53:56.813Z,16.02
2018-05-07T06:56:24.201Z,15.87
2018-05-07T06:58:51.583Z,15.77
2018-05-07T07:01:18.987Z,15.80
2018-05-07T07:03:46.376Z,16.00
2018-05-07T07:06:13.775Z,16.20
2018-05-07T07:08:42.361Z,16.41
2018-05-07T07:11:09.691Z,16.43
2018-05-07T07:13:37.080Z,16.40
2018-05-07T07:16:04.481Z,16.28
2018-05-07T07:18:31.852Z,16.45
2018-05-07T07:20:59.252Z,16.65
2018-05-07T07:23:26.635Z,16.49
2018-05-07T07:25:54.029Z,16.78
2018-05-07T07:28:21.417Z,16.96
2018-05-07T07:30:48.826Z,17.14
2018-05-07T07:33:16.208Z,17.04
2018-05-07T07:35:43.601Z,16.88
2018-05-07T07:38:10.995Z,16.88
2018-05-07T07:40:38.377Z,16.91
2018-05-07T07:43:05.769Z,17.01
2018-05-07T07:45:33.158Z,16.96
2018-05-07T07:48:00.561Z,17.24
2018-05-07T07:50:27.938Z,17.48
2018-05-07T07:52:55.903Z,17.69
2018-05-07T07:55:23.292Z,17.43
2018-05-07T07:57:50.680Z,17.43
2018-05-07T08:00:18.948Z,17.62
2018-05-07T08:02:46.336Z,17.52
2018-05-07T08:05:13.727Z,17.60
2018-05-07T08:07:41.133Z,17.72
2018-05-07T08:10:08.524Z,17.68
2018-05-07T08:12:35.917Z,17.97
2018-05-07T08:15:04.077Z,18.03
2018-05-07T08:17:31.482Z,17.97
2018-05-07T08:19:58.864Z,18.06
2018-05-07T08:22:26.263Z,18.18
2018-05-07T08:24:53.648Z,18.32
2018-05-07T08:27:21.032Z,18.57
2018-05-07T08:29:48.422Z,18.27
2018-05-07T08:32:15.828Z,18.29
2018-05-07T08:34:43.218Z,18.34
2018-05-07T08:37:10.599Z,18.43
2018-05-07T08:39:37.979Z,18.54
2018-05-07T08:42:05.372Z,18.67
2018-05-07T08:44:32.760Z,18.56
2018-05-07T08:47:01.789Z,18.77
2018-05-07T08:49:29.190Z,19.03
2018-05-07T08:51:56.584Z,19.24
2018-05-07T08:54:23.971Z,19.55
2018-05-07T08:56:51.365Z,19.52
2018-05-07T08:59:18.741Z,19.55
2018-05-07T09:01:47.141Z,19.46
2018-05-07T09:04:14.406Z,19.75
2018-05-07T09:06:41.780Z,19.66
2018-05-07T09:09:09.255Z,19.81
2018-05-07T09:11:36.573Z,20.06
2018-05-07T09:14:03.968Z,20.12
2018-05-07T09:16:31.348Z,20.14
2018-05-07T09:18:58.740Z,20.51
2018-05-07T09:21:26.122Z,20.58
2018-05-07T09:23:53.529Z,20.61
2018-05-07T09:26:21.364Z,20.39
2018-05-07T09:28:49.180Z,20.50
2018-05-07T09:31:16.559Z,20.57
2018-05-07T09:33:43.955Z,20.84
2018-05-07T09:36:11.595Z,20.75
2018-05-07T09:38:39.000Z,20.67
2018-05-07T09:41:06.392Z,20.99
2018-05-07T09:43:33.784Z,21.24
2018-05-07T09:46:01.424Z,21.41
2018-05-07T09:48:28.818Z,21.42
2018-05-07T09:50:56.199Z,21.42
2018-05-07T09:53:23.600Z,21.13
2018-05-07T09:55:50.988Z,21.23
2018-05-07T09:58:18.376Z,21.40
2018-05-07T10:00:45.772Z,21.59
2018-05-07T10:03:13.169Z,21.60
2018-05-07T10:05:40.555Z,21.66
2018-05-07T10:08:07.943Z,21.97
2018-05-07T10:10:35.328Z,21.83
2018-05-07T10:13:02.737Z,21.77
2018-05-07T10:15:30.115Z,21.86
2018-05-07T10:17:57.507Z,21.85
2018-05-07T10:20:24.896Z,22.20
2018-05-07T10:22:53.259Z,22.32
2018-05-07T10:25:20.654Z,22.52
2018-05-07T10:27:48.063Z,22.38
2018-05-07T10:30:15.449Z,22.22
2018-05-07T10:32:42.838Z,22.31
2018-05-07T10:35:10.233Z,22.61
2018-05-07T10:37:37.619Z,22.47
2018-05-07T10:40:05.007Z,22.48
2018-05-07T10:42:32.400Z,22.44
2018-05-07T10:44:59.788Z,22.70
2018-05-07T10:47:27.184Z,22.73
2018-05-07T10:49:54.587Z,22.99
2018-05-07T10:52:22.788Z,22.95
2018-05-07T10:54:51.104Z,22.95
2018-05-07T10:57:18.494Z,23.04
2018-05-07T10:59:46.682Z,22.83
2018-05-07T11:02:14.063Z,22.94
2018-05-07T11:04:41.452Z,22.89
2018-05-07T11:07:08.871Z,23.20
2018-05-07T11:09:36.240Z,22.87
2018-05-07T11:12:03.623Z,23.15
2018-05-07T11:14:31.005Z,23.39
2018-05-07T11:16:58.393Z,23.46
2018-05-07T11:19:25.799Z,23.51
2018-05-07T11:21:53.172Z,23.29
2018-05-07T11:24:20.578Z,23.26
2018-05-07T11:26:47.963Z,23.18
2018-05-07T11:29:15.357Z,23.31
2018-05-07T11:31:42.742Z,23.33
2018-05-07T11:34:10.136Z,23.54
2018-05-07T11:36:37.524Z,23.72
2018-05-07T11:39:05.485Z,23.58
2018-05-07T11:41:32.851Z,23.47
2018-05-07T11:44:00.266Z,23.63
2018-05-07T11:46:27.643Z,23.66
2018-05-07T11:48:55.706Z,23.45
2018-05-07T11:51:23.097Z,23.47
2018-05-07T11:53:50.487Z,23.65
2018-05-07T11:56:17.875Z,23.77
2018-05-07T11:58:45.268Z,23.88
2018-05-07T12:01:12.649Z,23.72
2018-05-07T12:03:40.028Z,23.43
2018-05-07T12:06:07.420Z,23.28
2018-05-07T12:08:35.615Z,23.60
2018-05-07T12:11:03.008Z,23.85
2018-05-07T12:13:30.404Z,23.77
2018-05-07T12:15:57.818Z,23.74
2018-05-07T12:18:25.186Z,23.94
2018-05-07T12:20:52.580Z,24.17
2018-05-07T12:23:20.047Z,24.35
2018-05-07T12:25:47.354Z,24.09
2018-05-07T12:28:14.732Z,24.52
2018-05-07T12:30:42.145Z,24.22
2018-05-07T12:33:09.526Z,24.31
2018-05-07T12:35:36.920Z,24.24
2018-05-07T12:38:04.312Z,23.93
2018-05-07T12:40:31.696Z,24.02
2018-05-07T12:42:59.076Z,24.07
2018-05-07T12:45:26.476Z,23.96
2018-05-07T12:47:53.863Z,24.38
2018-05-07T12:50:21.481Z,24.47
2018-05-07T12:52:48.880Z,24.29
2018-05-07T12:55:16.272Z,24.32
2018-05-07T12:57:43.660Z,24.38
2018-05-07T13:00:11.053Z,24.47
2018-05-07T13:02:38.439Z,24.58
2018-05-07T13:05:05.831Z,24.70
2018-05-07T13:07:33.218Z,24.62
2018-05-07T13:10:00.645Z,24.61
2018-05-07T13:12:28.568Z,24.54
2018-05-07T13:14:55.926Z,24.34
2018-05-07T13:17:23.311Z,24.54
2018-05-07T13:19:50.714Z,24.72
2018-05-07T13:22:18.105Z,24.39
2018-05-07T13:24:45.538Z,24.48
2018-05-07T13:27:12.896Z,24.31
2018-05-07T13:29:40.303Z,24.46
2018-05-07T13:32:07.683Z,24.69
2018-05-07T13:34:35.072Z,24.84
2018-05-07T13:37:02.477Z,24.78
2018-05-07T13:39:29.868Z,25.04
2018-05-07T13:41:57.256Z,24.69
2018-05-07T13:44:24.660Z,25.08
2018-05-07T13:46:52.040Z,24.57
2018-05-07T13:49:19.436Z,24.80
2018-05-07T13:51:46.824Z,24.77
2018-05-07T13:54:14.205Z,25.00
2018-05-07T13:56:41.596Z,24.60
2018-05-07T13:59:08.986Z,24.91
2018-05-07T14:01:36.376Z,24.98
2018-05-07T14:04:03.777Z,24.97
2018-05-07T14:06:31.221Z,25.02
2018-05-07T14:08:58.596Z,24.99
2018-05-07T14:11:25.980Z,25.14
2018-05-07T14:13:53.369Z,25.32
2018-05-07T14:16:20.769Z,25.42
2018-05-07T14:18:48.153Z,25.19
2018-05-07T14:21:15.775Z,25.21
2018-05-07T14:23:43.170Z,25.26
2018-05-07T14:26:11.336Z,25.23
2018-05-07T14:28:38.635Z,25.38
2018-05-07T14:31:06.049Z,25.12
2018-05-07T14:33:33.450Z,24.97
2018-05-07T14:36:01.734Z,24.97
2018-05-07T14:38:29.113Z,25.13
2018-05-07T14:40:56.521Z,25.05
2018-05-07T14:43:23.908Z,25.38
2018-05-07T14:45:51.310Z,25.33
2018-05-07T14:48:18.692Z,25.28
2018-05-07T14:50:46.089Z,25.42
2018-05-07T14:53:13.488Z,25.37
2018-05-07T14:55:40.877Z,25.48
2018-05-07T14:58:08.870Z,25.59
2018-05-07T15:00:36.294Z,25.46
2018-05-07T15:03:03.652Z,25.56
2018-05-07T15:05:31.108Z,25.52
2018-05-07T15:07:58.434Z,25.63
2018-05-07T15:10:26.272Z,25.48
2018-05-07T15:12:53.674Z,25.52
2018-05-07T15:15:21.056Z,25.66
2018-05-07T15:17:48.473Z,25.40
2018-05-07T15:20:15.860Z,24.88
2018-05-07T15:22:44.140Z,24.68
2018-05-07T15:25:11.532Z,24.87
2018-05-07T15:27:38.919Z,24.87
2018-05-07T15:30:06.299Z,24.84
2018-05-07T15:32:34.077Z,24.78
2018-05-07T15:35:01.467Z,25.03
2018-05-07T15:37:28.856Z,25.09
2018-05-07T15:39:56.239Z,25.14
2018-05-07T15:42:23.636Z,25.31
2018-05-07T15:44:51.024Z,25.30
2018-05-07T15:47:18.416Z,25.44
2018-05-07T15:49:45.805Z,25.58
2018-05-07T15:52:13.215Z,25.72
2018-05-07T15:54:40.597Z,25.78
2018-05-07T15:57:07.996Z,25.89
2018-05-07T15:59:35.380Z,25.56
2018-05-07T16:02:02.779Z,25.58
2018-05-07T16:04:30.172Z,25.62
2018-05-07T16:06:57.561Z,25.62
2018-05-07T16:09:24.948Z,25.62
2018-05-07T16:11:52.344Z,25.48
2018-05-07T16:14:19.734Z,25.31
2018-05-07T16:16:47.126Z,25.25
2018-05-07T16:19:14.530Z,25.29
2018-05-07T16:21:41.931Z,25.13
2018-05-07T16:24:09.291Z,24.76
2018-05-07T16:26:37.626Z,24.44
2018-05-07T16:29:04.930Z,24.58
2018-05-07T16:31:32.333Z,24.66
2018-05-07T16:33:59.704Z,24.87
2018-05-07T16:36:27.094Z,24.83
2018-05-07T16:38:54.500Z,24.73
2018-05-07T16:41:21.908Z,24.58
2018-05-07T16:43:49.301Z,24.59
2018-05-07T16:46:16.677Z,24.66
2018-05-07T16:48:44.335Z,24.66
2018-05-07T16:51:13.252Z,24.78
2018-05-07T16:53:41.103Z,24.76
2018-05-07T16:56:08.484Z,24.83
2018-05-07T16:58:35.878Z,24.76
2018-05-07T17:01:03.258Z,24.70
2018-05-07T17:03:30.651Z,24.91
2018-05-07T17:05:58.042Z,24.76
2018-05-07T17:08:25.480Z,24.65
2018-05-07T17:10:52.810Z,24.62
2018-05-07T17:13:20.217Z,24.66
2018-05-07T17:15:47.993Z,24.51
2018-05-07T17:18:15.385Z,24.34
2018-05-07T17:20:42.773Z,24.23
2018-05-07T17:23:10.166Z,24.04
2018-05-07T17:25:37.554Z,23.97
2018-05-07T17:28:04.940Z,23.94
2018-05-07T17:30:32.331Z,23.89
2018-05-07T17:32:59.733Z,23.70
2018-05-07T17:35:27.131Z,23.65
2018-05-07T17:37:54.516Z,23.44
2018-05-07T17:40:22.079Z,23.27
2018-05-07T17:42:49.610Z,23.12
2018-05-07T17:45:28.532Z,22.96
2018-05-07T17:48:07.820Z,22.89
2018-05-07T17:50:35.178Z,22.73
2018-05-07T17:53:03.429Z,22.52
2018-05-07T17:55:30.804Z,22.43
2018-05-07T17:57:58.209Z,22.30
2018-05-07T18:00:25.643Z,22.17
2018-05-07T18:02:53.050Z,22.13
2018-05-07T18:05:20.426Z,22.21
2018-05-07T18:07:48.048Z,22.10
2018-05-07T18:10:16.534Z,22.06
2018-05-07T18:12:44.435Z,22.13
2018-05-07T18:15:11.848Z,22.03
2018-05-07T18:17:39.241Z,21.92
2018-05-07T18:20:06.628Z,21.87
2018-05-07T18:22:34.926Z,21.78
2018-05-07T18:25:02.328Z,21.75
2018-05-07T18:27:29.700Z,21.64
2018-05-07T18:29:57.095Z,21.45
2018-05-07T18:32:24.527Z,21.29
2018-05-07T18:34:51.884Z,21.25
2018-05-07T18:37:19.265Z,21.19
2018-05-07T18:39:46.665Z,21.17
2018-05-07T18:42:14.052Z,21.30
2018-05-07T18:44:41.455Z,21.19
2018-05-07T18:47:08.836Z,21.08
2018-05-07T18:49:36.230Z,21.09
2018-05-07T18:52:03.625Z,21.02
2018-05-07T18:54:31.007Z,20.97
2018-05-07T18:56:58.393Z,20.84
2018-05-07T18:59:25.792Z,20.66
2018-05-07T19:01:53.174Z,20.56
2018-05-07T19:04:20.572Z,20.50
2018-05-07T19:06:47.954Z,20.45
2018-05-07T19:09:15.917Z,20.43
2018-05-07T19:11:44.139Z,20.38
2018-05-07T19:14:11.605Z,20.30
2018-05-07T19:16:38.937Z,20.22
2018-05-07T19:19:06.327Z,20.22
2018-05-07T19:21:33.721Z,20.27
2018-05-07T19:24:01.110Z,20.26
2018-05-07T19:26:28.491Z,20.21
2018-05-07T19:28:55.880Z,20.23
2018-05-07T19:31:23.268Z,20.13
2018-05-07T19:33:50.657Z,19.98
2018-05-07T19:36:18.620Z,19.80
2018-05-07T19:38:46.014Z,19.72
2018-05-07T19:41:13.497Z,19.69
2018-05-07T19:43:40.792Z,19.59
2018-05-07T19:46:08.724Z,19.45
2018-05-07T19:48:36.227Z,19.33
2018-05-07T19:51:03.506Z,19.19
2018-05-07T19:53:30.896Z,19.16
2018-05-07T19:55:58.279Z,19.13
2018-05-07T19:58:25.684Z,19.10
2018-05-07T20:00:53.067Z,18.95
2018-05-07T20:03:20.448Z,18.87
2018-05-07T20:05:47.902Z,18.72
2018-05-07T20:08:15.231Z,18.56
2018-05-07T20:10:42.629Z,18.62
2018-05-07T20:13:10.068Z,18.54
2018-05-07T20:15:37.443Z,18.28
2018-05-07T20:18:05.137Z,18.06
2018-05-07T20:20:32.563Z,17.89
2018-05-07T20:22:59.954Z,17.67
2018-05-07T20:25:27.343Z,17.62
2018-05-07T20:27:54.992Z,17.54
2018-05-07T20:30:24.838Z,17.39
2018-05-07T20:32:52.221Z,17.23
2018-05-07T20:35:19.628Z,17.17
2018-05-07T20:37:47.434Z,17.09
2018-05-07T20:40:14.858Z,17.05
2018-05-07T20:42:42.226Z,16.99
2018-05-07T20:45:09.677Z,16.95
2018-05-07T20:47:37.066Z,16.88
2018-05-07T20:50:04.472Z,16.75
2018-05-07T20:52:31.889Z,16.69
2018-05-07T20:54:59.297Z,16.52
2018-05-07T20:57:27.573Z,16.34
2018-05-07T20:59:55.772Z,16.44
2018-05-07T21:02:23.205Z,16.41
2018-05-07T21:04:50.594Z,16.45
2018-05-07T21:07:18.265Z,16.43
2018-05-07T21:09:46.887Z,16.44
2018-05-07T21:12:14.300Z,16.35
2018-05-07T21:14:41.687Z,16.30
2018-05-07T21:17:09.077Z,16.21
2018-05-07T21:19:36.456Z,16.21
2018-05-07T21:22:03.852Z,16.16
2018-05-07T21:24:31.531Z,16.09
2018-05-07T21:26:58.935Z,16.03
2018-05-07T21:29:26.311Z,15.93
2018-05-07T21:31:53.708Z,15.75
2018-05-07T21:34:21.407Z,15.61
2018-05-07T21:36:49.084Z,15.45
2018-05-07T21:39:16.522Z,15.25
2018-05-07T21:41:43.895Z,15.07
2018-05-07T21:44:11.285Z,15.00
2018-05-07T21:46:38.687Z,15.14
2018-05-07T21:49:06.077Z,15.09
2018-05-07T21:51:33.479Z,15.08
2018-05-07T21:54:00.863Z,15.03
2018-05-07T21:56:28.263Z,14.88
2018-05-07T21:58:55.656Z,14.78
2018-05-07T22:02:39.949Z,14.70
2018-05-07T22:05:07.360Z,14.61
2018-05-07T22:07:34.752Z,14.60
2018-05-07T22:10:02.167Z,14.74
2018-05-07T22:12:29.560Z,14.75
2018-05-07T22:14:56.960Z,14.73
2018-05-07T22:17:25.115Z,14.65
2018-05-07T22:19:52.496Z,14.60
2018-05-07T22:22:20.484Z,14.55
2018-05-07T22:24:47.877Z,14.39
2018-05-07T22:27:15.520Z,14.27
2018-05-07T22:29:42.912Z,14.15
2018-05-07T22:32:10.358Z,14.03
2018-05-07T22:34:37.707Z,13.86
2018-05-07T22:37:05.911Z,13.72
2018-05-07T22:39:33.298Z,13.67
2018-05-07T22:42:00.688Z,13.67
2018-05-07T22:44:28.064Z,13.67
2018-05-07T22:46:55.455Z,13.56
2018-05-07T22:49:22.841Z,13.71
2018-05-07T22:51:51.155Z,13.76
2018-05-07T22:54:18.544Z,13.67
2018-05-07T22:56:45.935Z,13.64
2018-05-07T22:59:13.317Z,13.55
2018-05-07T23:01:40.718Z,13.43
2018-05-07T23:04:08.098Z,13.27
2018-05-07T23:06:35.490Z,13.11
2018-05-07T23:09:02.873Z,13.35
2018-05-07T23:11:30.261Z,13.32
2018-05-07T23:13:57.656Z,13.27
2018-05-07T23:16:25.064Z,13.20
2018-05-07T23:18:52.462Z,13.29
2018-05-07T23:21:19.845Z,13.15
2018-05-07T23:23:47.236Z,13.09
2018-05-07T23:26:14.640Z,13.03
2018-05-07T23:28:42.023Z,12.84
2018-05-07T23:31:09.409Z,12.66
2018-05-07T23:33:36.805Z,12.68
2018-05-07T23:36:04.241Z,12.72
2018-05-07T23:38:31.637Z,12.73
2018-05-07T23:40:59.021Z,12.71
2018-05-07T23:43:26.422Z,12.37
2018-05-07T23:45:53.791Z,12.51
2018-05-07T23:48:21.188Z,12.26
2018-05-07T23:50:48.581Z,12.27
2018-05-07T23:53:15.968Z,12.37
2018-05-07T23:55:43.932Z,12.50
2018-05-07T23:58:11.325Z,12.51
